Time;durP1;ratioP1;P1;durP2;ratioP2;P2;SDS_P1;SDS_P2;PMS_P1;PMS_P2;Temp;Humidity;BMP_temperature;BMP_pressure;BME280_temperature;BME280_humidity;BME280_pressure;Samples;Min_cycle;Max_cycle;Signal;HPM_P1;HPM_P2
2021/07/14 00:02:02;;;;;;;5.30;4.80;;;21.60;74.80;;;;;;5097372;28;20040;-73
2021/07/14 00:04:28;;;;;;;5.35;4.75;;;21.60;74.80;;;;;;5097733;28;20075;-73
2021/07/14 00:06:54;;;;;;;5.70;5.05;;;21.60;74.80;;;;;;5097053;28;20443;-73
2021/07/14 00:09:19;;;;;;;5.05;4.55;;;21.60;74.80;;;;;;5096680;28;20393;-73
2021/07/14 00:11:54;;;;;;;5.32;4.82;;;21.60;74.80;;;;;;5096873;28;20048;-73
2021/07/14 00:22:30;;;;;;;5.30;4.80;;;21.60;74.80;;;;;;5097388;28;20346;-72
2021/07/14 00:24:57;;;;;;;5.20;4.70;;;21.60;74.80;;;;;;5096826;28;20056;-72
2021/07/14 00:27:24;;;;;;;5.43;4.93;;;21.60;74.80;;;;;;5096853;28;20352;-72
2021/07/14 00:30:07;;;;;;;5.00;4.60;;;21.60;74.80;;;;;;5097144;28;20436;-72
2021/07/14 00:32:33;;;;;;;4.68;4.28;;;21.60;74.80;;;;;;5096893;28;20052;-72
2021/07/14 00:34:59;;;;;;;5.68;4.95;;;21.60;74.80;;;;;;5095642;28;20052;-72
2021/07/14 00:37:25;;;;;;;5.13;4.45;;;21.60;74.80;;;;;;5096692;28;20083;-72
2021/07/14 00:39:56;;;;;;;5.22;4.72;;;21.60;74.80;;;;;;5097187;28;20040;-73
2021/07/14 00:42:24;;;;;;;5.05;4.60;;;21.60;74.80;;;;;;5096266;28;20040;-73
2021/07/14 00:44:51;;;;;;;5.22;4.80;;;21.60;74.80;;;;;;5096240;28;20051;-73
2021/07/14 00:47:29;;;;;;;4.80;4.40;;;21.60;74.80;;;;;;5096206;28;20075;-73
2021/07/14 00:49:55;;;;;;;5.25;4.55;;;21.60;74.80;;;;;;5096530;28;20052;-73
2021/07/14 00:52:22;;;;;;;4.93;4.47;;;21.60;74.80;;;;;;5095939;28;20062;-73
2021/07/14 00:54:57;;;;;;;5.00;4.53;;;21.60;74.80;;;;;;5133645;27;20817;-74
2021/07/14 00:57:27;;;;;;;4.85;4.45;;;21.60;74.80;;;;;;5112773;28;20359;-74
2021/07/14 00:59:53;;;;;;;4.90;4.50;;;21.60;74.80;;;;;;5113470;28;20453;-74
2021/07/14 01:02:19;;;;;;;5.22;4.70;;;21.50;74.70;;;;;;5113175;28;20044;-74
2021/07/14 01:04:56;;;;;;;4.88;4.38;;;21.50;74.70;;;;;;5113069;28;20039;-74
2021/07/14 01:07:32;;;;;;;6.07;5.03;;;21.60;74.80;;;;;;5095512;28;20039;-74
2021/07/14 01:10:16;;;;;;;5.28;4.78;;;21.60;74.70;;;;;;5112956;28;20112;-74
2021/07/14 01:12:50;;;;;;;5.15;4.65;;;21.50;74.70;;;;;;5112936;28;20060;-73
2021/07/14 01:15:18;;;;;;;5.20;4.70;;;21.60;74.80;;;;;;5112816;28;20048;-74
2021/07/14 01:17:52;;;;;;;5.40;4.90;;;21.60;74.80;;;;;;5113072;28;20403;-74
2021/07/14 01:20:30;;;;;;;4.88;4.32;;;21.60;75.40;;;;;;5112549;28;20043;-74
2021/07/14 01:23:09;;;;;;;5.40;4.53;;;21.50;74.70;;;;;;5113025;28;20393;-74
2021/07/14 01:26:13;;;;;;;5.07;4.60;;;21.50;74.70;;;;;;5112615;28;20115;-74
2021/07/14 01:28:43;;;;;;;4.95;4.45;;;21.60;75.40;;;;;;5022571;28;20189;-74
2021/07/14 01:31:17;;;;;;;4.93;4.35;;;21.50;74.70;;;;;;5112322;28;20326;-74
2021/07/14 01:33:46;;;;;;;4.75;4.28;;;21.50;74.70;;;;;;5112227;28;20121;-74
2021/07/14 01:36:17;;;;;;;5.40;4.90;;;21.60;74.80;;;;;;5112247;28;20065;-74
2021/07/14 01:38:46;;;;;;;5.75;4.60;;;21.50;74.80;;;;;;5112341;28;20044;-74
2021/07/14 01:41:16;;;;;;;5.10;4.60;;;21.50;74.70;;;;;;5112196;28;20044;-74
2021/07/14 01:43:48;;;;;;;4.78;4.38;;;21.50;74.70;;;;;;5112579;28;20054;-74
2021/07/14 01:46:16;;;;;;;5.28;4.78;;;21.50;74.70;;;;;;5112196;28;20340;-74
2021/07/14 01:48:45;;;;;;;4.75;4.35;;;21.50;74.70;;;;;;5112244;28;20036;-74
2021/07/14 01:51:13;;;;;;;5.55;4.78;;;21.50;74.70;;;;;;5112161;28;20415;-74
2021/07/14 01:53:39;;;;;;;5.85;4.60;;;21.50;74.70;;;;;;5111840;28;20051;-74
2021/07/14 01:56:09;;;;;;;5.30;4.82;;;21.50;74.70;;;;;;5112127;28;20063;-74
2021/07/14 01:58:39;;;;;;;5.20;4.75;;;21.50;74.70;;;;;;5111799;28;20477;-74
2021/07/14 02:01:12;;;;;;;5.30;4.80;;;21.50;74.70;;;;;;5111496;28;20032;-74
2021/07/14 02:03:42;;;;;;;4.93;4.47;;;21.50;74.70;;;;;;5112005;28;20045;-74
2021/07/14 02:06:10;;;;;;;5.18;4.68;;;21.50;74.80;;;;;;5098872;28;20056;-74
2021/07/14 02:08:40;;;;;;;5.28;4.82;;;21.50;74.70;;;;;;5097948;28;20431;-74
2021/07/14 02:11:06;;;;;;;4.78;4.38;;;21.50;74.70;;;;;;5098449;28;20137;-74
2021/07/14 02:13:34;;;;;;;5.72;5.13;;;21.50;74.70;;;;;;5098338;28;20105;-74
2021/07/14 02:16:01;;;;;;;5.10;4.60;;;21.50;74.70;;;;;;5098256;28;20055;-74
2021/07/14 02:18:37;;;;;;;5.40;4.90;;;21.50;74.70;;;;;;5098064;28;20044;-74
2021/07/14 02:21:03;;;;;;;5.28;4.78;;;21.50;74.70;;;;;;5097734;28;20080;-74
2021/07/14 02:23:29;;;;;;;5.28;4.78;;;21.50;74.70;;;;;;5097797;28;20111;-74
2021/07/14 02:25:55;;;;;;;5.30;4.80;;;21.50;74.70;;;;;;5097933;28;20055;-74
2021/07/14 02:28:21;;;;;;;5.80;5.20;;;21.50;74.70;;;;;;5097762;28;20043;-74
2021/07/14 02:30:46;;;;;;;4.70;4.30;;;21.50;74.70;;;;;;5097329;28;20370;-74
2021/07/14 02:33:14;;;;;;;4.90;4.50;;;21.50;74.70;;;;;;5079946;28;20040;-74
2021/07/14 02:35:45;;;;;;;5.15;4.68;;;21.50;74.70;;;;;;5097523;28;20399;-74
2021/07/14 02:38:10;;;;;;;5.00;4.60;;;21.50;74.70;;;;;;5097664;28;20112;-74
2021/07/14 02:40:47;;;;;;;4.95;4.55;;;21.50;74.70;;;;;;5097638;28;20114;-74
2021/07/14 02:43:20;;;;;;;5.38;4.88;;;21.50;74.70;;;;;;5098258;28;20051;-74
2021/07/14 02:45:49;;;;;;;5.40;4.83;;;21.50;74.70;;;;;;5097420;28;20044;-74
2021/07/14 02:48:17;;;;;;;5.30;4.80;;;21.50;74.70;;;;;;5097812;28;20286;-74
2021/07/14 02:50:44;;;;;;;5.25;4.60;;;21.50;74.70;;;;;;5097486;28;20115;-74
2021/07/14 02:53:22;;;;;;;5.10;4.60;;;21.50;74.80;;;;;;5097050;28;20335;-74
2021/07/14 02:55:55;;;;;;;5.40;4.70;;;21.50;74.70;;;;;;5097346;28;20105;-74
2021/07/14 02:58:28;;;;;;;5.63;5.13;;;21.50;74.70;;;;;;5097224;28;20063;-74
2021/07/14 03:00:55;;;;;;;5.05;4.55;;;21.50;74.70;;;;;;5097626;28;20377;-74
2021/07/14 03:03:24;;;;;;;4.80;4.30;;;21.40;74.70;;;;;;5097360;28;20365;-74
2021/07/14 03:05:59;;;;;;;5.78;4.93;;;21.50;74.70;;;;;;5097070;28;20067;-74
2021/07/14 03:08:27;;;;;;;5.05;4.63;;;21.50;74.70;;;;;;5096932;28;20045;-74
2021/07/14 03:10:56;;;;;;;5.30;4.80;;;21.50;74.70;;;;;;5096993;28;20051;-74
2021/07/14 03:13:27;;;;;;;5.55;5.05;;;21.50;74.70;;;;;;5097296;28;20109;-74
2021/07/14 03:15:54;;;;;;;5.30;4.78;;;21.50;74.70;;;;;;5096837;28;20044;-74
2021/07/14 03:18:22;;;;;;;6.25;5.38;;;21.50;74.70;;;;;;5096198;28;20105;-74
2021/07/14 03:20:53;;;;;;;5.95;5.15;;;21.50;74.70;;;;;;5097592;28;20044;-74
2021/07/14 03:23:20;;;;;;;5.65;5.15;;;21.50;74.70;;;;;;5096612;28;20044;-74
2021/07/14 03:25:49;;;;;;;5.25;4.75;;;21.50;74.70;;;;;;5097045;28;20130;-74
2021/07/14 03:28:16;;;;;;;12.02;5.10;;;21.50;74.70;;;;;;5096800;28;20047;-74
2021/07/14 03:30:42;;;;;;;5.63;5.07;;;21.50;74.70;;;;;;5096729;28;20036;-74
2021/07/14 03:33:08;;;;;;;5.00;4.60;;;21.50;74.70;;;;;;5096486;28;20036;-74
2021/07/14 03:35:36;;;;;;;5.43;4.90;;;21.40;74.60;;;;;;5096246;28;20047;-74
2021/07/14 03:38:05;;;;;;;5.72;5.20;;;21.40;74.60;;;;;;5096473;28;20130;-74
2021/07/14 03:40:32;;;;;;;6.00;5.40;;;21.40;74.60;;;;;;5078618;28;20059;-74
2021/07/14 03:42:58;;;;;;;5.65;5.15;;;21.40;74.60;;;;;;5096402;28;20085;-74
2021/07/14 03:45:27;;;;;;;5.47;4.97;;;21.50;74.70;;;;;;5096593;28;20036;-74
2021/07/14 03:47:53;;;;;;;6.10;5.50;;;21.50;74.70;;;;;;5095755;28;20062;-74
2021/07/14 03:50:21;;;;;;;5.78;5.28;;;21.40;74.60;;;;;;5096168;28;20039;-74
2021/07/14 03:52:48;;;;;;;5.90;5.30;;;21.40;74.60;;;;;;5096292;28;20416;-74
2021/07/14 03:55:15;;;;;;;5.78;5.18;;;21.40;74.60;;;;;;5096361;28;20044;-74
2021/07/14 03:57:42;;;;;;;6.45;5.53;;;21.50;74.70;;;;;;5096408;28;20054;-74
2021/07/14 04:00:09;;;;;;;5.97;5.38;;;21.50;74.70;;;;;;5096170;28;20050;-74
2021/07/14 04:02:42;;;;;;;6.18;5.57;;;21.40;74.60;;;;;;5095876;28;20067;-74
2021/07/14 04:05:08;;;;;;;6.38;5.78;;;21.40;74.70;;;;;;5095793;28;20346;-74
2021/07/14 04:07:37;;;;;;;5.88;4.95;;;21.50;74.70;;;;;;5096289;28;20052;-74
2021/07/14 04:10:04;;;;;;;5.97;4.85;;;21.40;74.60;;;;;;5096600;28;20122;-74
2021/07/14 04:12:30;;;;;;;5.40;4.90;;;21.40;74.60;;;;;;5095868;28;20047;-74
2021/07/14 04:14:56;;;;;;;5.95;5.38;;;21.40;74.60;;;;;;5095968;28;20047;-74
2021/07/14 04:17:21;;;;;;;5.45;4.95;;;21.40;74.60;;;;;;5095701;28;20115;-74
2021/07/14 04:19:47;;;;;;;5.93;5.43;;;21.50;74.70;;;;;;5095494;28;20048;-74
2021/07/14 04:22:13;;;;;;;5.63;5.07;;;21.40;74.60;;;;;;5095686;28;20427;-74
2021/07/14 04:24:41;;;;;;;6.60;6.00;;;21.40;74.60;;;;;;5095786;28;20035;-74
2021/07/14 04:27:08;;;;;;;5.75;5.07;;;21.40;74.80;;;;;;5095591;28;20048;-74
2021/07/14 04:29:34;;;;;;;6.13;5.53;;;21.50;74.70;;;;;;5095581;28;20036;-74
2021/07/14 04:32:03;;;;;;;6.22;5.63;;;21.40;74.60;;;;;;5095335;28;20063;-74
2021/07/14 04:34:29;;;;;;;5.88;5.30;;;21.50;74.70;;;;;;5095535;28;20036;-74
2021/07/14 04:36:55;;;;;;;6.40;5.35;;;21.40;74.60;;;;;;5095274;28;20097;-74
2021/07/14 04:39:20;;;;;;;5.43;4.93;;;21.40;74.60;;;;;;5095470;28;20411;-74
2021/07/14 04:41:46;;;;;;;6.13;5.53;;;21.40;74.60;;;;;;5095735;28;20047;-77
2021/07/14 04:44:28;;;;;;;6.20;5.60;;;21.40;74.60;;;;;;5096048;28;20044;-74
2021/07/14 04:46:54;;;;;;;7.22;5.90;;;21.40;74.60;;;;;;5095118;28;20442;-74
2021/07/14 04:49:20;;;;;;;5.85;5.35;;;21.40;74.70;;;;;;5095344;28;20046;-74
2021/07/14 04:51:46;;;;;;;6.30;5.50;;;21.40;74.70;;;;;;5095514;28;20043;-74
2021/07/14 04:54:11;;;;;;;5.60;5.10;;;21.40;74.70;;;;;;5094943;28;20063;-74
2021/07/14 04:56:37;;;;;;;5.93;5.32;;;21.40;74.70;;;;;;5095298;28;20071;-74
2021/07/14 04:59:08;;;;;;;5.82;5.28;;;21.40;74.70;;;;;;5095204;28;20043;-74
2021/07/14 05:01:34;;;;;;;6.65;5.85;;;21.40;74.70;;;;;;5095825;28;20036;-74
2021/07/14 05:04:00;;;;;;;6.20;5.60;;;21.40;74.60;;;;;;5095511;28;20117;-74
2021/07/14 05:06:26;;;;;;;5.85;5.35;;;21.40;74.60;;;;;;5095293;28;20036;-74
2021/07/14 05:08:52;;;;;;;6.47;5.80;;;21.40;74.70;;;;;;5095026;28;20346;-74
2021/07/14 05:11:18;;;;;;;5.97;5.38;;;21.40;74.70;;;;;;5095065;28;20036;-74
2021/07/14 05:13:43;;;;;;;6.65;5.97;;;21.40;74.70;;;;;;5094684;28;20332;-74
2021/07/14 05:16:09;;;;;;;6.22;5.70;;;21.40;74.70;;;;;;5094893;28;20114;-74
2021/07/14 05:18:36;;;;;;;7.13;6.00;;;21.40;74.70;;;;;;5095185;28;20446;-74
2021/07/14 05:21:03;;;;;;;6.32;5.72;;;21.40;74.70;;;;;;5094652;28;20105;-74
2021/07/14 05:23:29;;;;;;;6.40;5.80;;;21.40;74.70;;;;;;5095741;28;20075;-74
2021/07/14 05:25:55;;;;;;;6.93;6.22;;;21.40;74.70;;;;;;5095811;28;20127;-74
2021/07/14 05:28:21;;;;;;;6.68;6.07;;;21.50;75.30;;;;;;5095002;28;20200;-74
2021/07/14 05:30:46;;;;;;;6.47;5.85;;;21.40;74.70;;;;;;5094905;28;20450;-74
2021/07/14 05:33:12;;;;;;;6.55;5.95;;;21.40;74.70;;;;;;5094786;28;20036;-74
2021/07/14 05:35:38;;;;;;;6.38;5.78;;;21.40;74.70;;;;;;5095435;28;20040;-74
2021/07/14 05:38:04;;;;;;;6.28;5.68;;;21.50;74.70;;;;;;5095180;28;20054;-74
2021/07/14 05:40:30;;;;;;;6.95;5.70;;;21.40;74.70;;;;;;5096685;28;20043;-74
2021/07/14 05:42:57;;;;;;;6.88;6.25;;;21.40;74.70;;;;;;5098833;28;20043;-74
2021/07/14 05:45:26;;;;;;;6.82;6.22;;;21.40;74.70;;;;;;5099104;28;20054;-74
2021/07/14 05:47:52;;;;;;;6.65;6.05;;;21.50;74.70;;;;;;5098677;28;20042;-74
2021/07/14 05:50:18;;;;;;;6.63;5.88;;;21.40;74.70;;;;;;5098769;28;20358;-74
2021/07/14 05:52:44;;;;;;;6.63;6.03;;;21.40;74.70;;;;;;5098279;28;20035;-76
2021/07/14 05:55:11;;;;;;;6.60;6.00;;;21.50;74.70;;;;;;5098391;28;20062;-74
2021/07/14 05:57:38;;;;;;;6.55;5.95;;;21.40;74.70;;;;;;5098037;28;20469;-74
2021/07/14 06:00:08;;;;;;;6.28;5.78;;;21.40;74.70;;;;;;5098426;28;20032;-74
2021/07/14 06:02:34;;;;;;;6.20;5.60;;;21.40;74.70;;;;;;5098152;28;20061;-74
2021/07/14 06:05:01;;;;;;;6.85;6.25;;;21.40;74.70;;;;;;5098396;28;20451;-74
2021/07/14 06:07:27;;;;;;;6.28;5.68;;;21.40;74.70;;;;;;5098083;28;20075;-74
2021/07/14 06:09:53;;;;;;;7.80;6.68;;;21.40;74.60;;;;;;5098655;28;20339;-74
2021/07/14 06:12:18;;;;;;;7.30;5.97;;;21.40;74.70;;;;;;5098110;28;20083;-74
2021/07/14 06:14:46;;;;;;;7.20;6.38;;;21.40;74.70;;;;;;5098497;28;20111;-74
2021/07/14 06:17:11;;;;;;;7.13;6.43;;;21.40;74.70;;;;;;5098112;28;20036;-74
2021/07/14 06:19:37;;;;;;;5.95;5.45;;;21.40;74.70;;;;;;5098025;28;20105;-74
2021/07/14 06:22:03;;;;;;;6.45;5.75;;;21.40;74.70;;;;;;5097918;28;20105;-74
2021/07/14 06:24:29;;;;;;;7.47;6.78;;;21.40;74.70;;;;;;5098131;28;20036;-74
2021/07/14 06:26:55;;;;;;;7.22;6.30;;;21.40;74.70;;;;;;5097968;28;20044;-74
2021/07/14 06:29:24;;;;;;;7.00;6.35;;;21.40;74.70;;;;;;5097759;28;20036;-74
2021/07/14 06:31:51;;;;;;;8.25;6.07;;;21.40;74.70;;;;;;5098352;28;20043;-74
2021/07/14 06:34:17;;;;;;;6.57;5.93;;;21.40;74.70;;;;;;5097637;28;20036;-74
2021/07/14 06:36:43;;;;;;;6.95;6.00;;;21.40;74.70;;;;;;5097599;28;20028;-74
2021/07/14 06:39:10;;;;;;;7.05;6.35;;;21.40;74.70;;;;;;5097520;28;20040;-74
2021/07/14 06:41:36;;;;;;;6.47;5.90;;;21.40;74.70;;;;;;5097932;28;20048;-74
2021/07/14 06:44:03;;;;;;;6.65;5.97;;;21.50;74.70;;;;;;5097730;28;20067;-74
2021/07/14 06:46:30;;;;;;;7.55;5.90;;;21.40;74.70;;;;;;5097445;28;20067;-74
2021/07/14 06:48:55;;;;;;;6.80;6.10;;;21.40;74.70;;;;;;5097716;28;20038;-74
2021/07/14 06:51:21;;;;;;;6.45;5.75;;;21.40;74.70;;;;;;5097954;28;20040;-74
2021/07/14 06:53:48;;;;;;;6.75;6.05;;;21.40;74.70;;;;;;5097324;28;20063;-74
2021/07/14 06:56:14;;;;;;;6.85;6.13;;;21.40;74.70;;;;;;5097247;28;20043;-74
2021/07/14 06:58:40;;;;;;;6.47;5.88;;;21.40;74.70;;;;;;5097469;28;20111;-74
2021/07/14 07:01:08;;;;;;;6.57;5.97;;;21.50;74.80;;;;;;5097217;28;20109;-74
2021/07/14 07:03:34;;;;;;;6.55;5.95;;;21.50;74.80;;;;;;5097133;28;20064;-73
2021/07/14 07:06:01;;;;;;;6.85;6.25;;;21.40;74.70;;;;;;5097297;28;20063;-74
2021/07/14 07:08:27;;;;;;;6.18;5.68;;;21.50;74.80;;;;;;5079234;28;20048;-74
2021/07/14 07:10:53;;;;;;;6.90;6.30;;;21.50;74.80;;;;;;5096892;28;20054;-74
2021/07/14 07:13:19;;;;;;;6.88;6.28;;;21.50;74.80;;;;;;5096642;28;20044;-73
2021/07/14 07:15:48;;;;;;;6.60;6.00;;;21.40;74.70;;;;;;5097610;28;20040;-74
2021/07/14 07:18:15;;;;;;;6.32;5.68;;;21.40;74.70;;;;;;5097199;28;20040;-75
2021/07/14 07:20:41;;;;;;;6.97;6.28;;;21.50;74.80;;;;;;5097518;28;20450;-74
2021/07/14 07:23:08;;;;;;;6.13;5.63;;;21.50;74.80;;;;;;5097069;28;20172;-74
2021/07/14 07:25:34;;;;;;;6.50;5.90;;;21.50;74.80;;;;;;5096461;28;20348;-74
2021/07/14 07:28:02;;;;;;;6.57;5.97;;;21.50;74.80;;;;;;5096656;28;20100;-74
2021/07/14 07:30:28;;;;;;;6.85;6.25;;;21.50;74.80;;;;;;5096984;28;20047;-74
2021/07/14 07:32:54;;;;;;;5.88;5.38;;;21.50;74.80;;;;;;5096587;28;20040;-75
2021/07/14 07:35:20;;;;;;;6.40;5.80;;;21.50;74.80;;;;;;5096421;28;20051;-74
2021/07/14 07:37:45;;;;;;;7.05;6.35;;;21.50;74.90;;;;;;5096290;28;20044;-74
2021/07/14 07:40:13;;;;;;;6.43;5.82;;;21.50;74.90;;;;;;5096815;28;20123;-73
2021/07/14 07:42:40;;;;;;;6.20;5.60;;;21.50;74.90;;;;;;5096378;28;20331;-74
2021/07/14 07:45:07;;;;;;;6.38;5.85;;;21.50;74.90;;;;;;5096488;28;20440;-74
2021/07/14 07:47:33;;;;;;;6.55;5.75;;;21.50;74.80;;;;;;5096483;28;20039;-74
2021/07/14 07:49:59;;;;;;;6.45;5.85;;;21.40;74.80;;;;;;5096364;28;20044;-74
2021/07/14 07:52:27;;;;;;;6.68;6.07;;;21.50;74.90;;;;;;5096020;28;20097;-74
2021/07/14 07:54:53;;;;;;;6.32;5.82;;;21.50;74.90;;;;;;5095815;28;20051;-74
2021/07/14 07:57:18;;;;;;;6.30;5.80;;;21.50;74.90;;;;;;5096528;28;20040;-74
2021/07/14 07:59:44;;;;;;;6.90;6.30;;;21.50;74.90;;;;;;5096110;28;20055;-74
2021/07/14 08:02:10;;;;;;;6.50;5.20;;;21.50;74.90;;;;;;5095795;28;20445;-73
2021/07/14 08:04:36;;;;;;;6.40;5.80;;;21.50;74.90;;;;;;5095405;28;20040;-74
2021/07/14 08:07:02;;;;;;;6.43;5.68;;;21.50;74.90;;;;;;5095857;28;20144;-74
2021/07/14 08:09:28;;;;;;;6.32;5.72;;;21.50;74.90;;;;;;5096080;28;20119;-73
2021/07/14 08:11:54;;;;;;;6.50;5.90;;;21.50;74.90;;;;;;5096024;28;20373;-74
2021/07/14 08:14:20;;;;;;;6.53;5.93;;;21.50;74.90;;;;;;5095969;28;20036;-74
2021/07/14 08:16:46;;;;;;;6.03;5.43;;;21.50;74.80;;;;;;5096020;28;20065;-74
2021/07/14 08:19:12;;;;;;;6.40;5.80;;;21.50;74.80;;;;;;5095945;28;20040;-73
2021/07/14 08:21:40;;;;;;;6.28;5.78;;;21.50;74.70;;;;;;5095628;28;20074;-74
2021/07/14 08:24:07;;;;;;;5.90;5.30;;;21.50;74.70;;;;;;5096200;28;20036;-74
2021/07/14 08:26:32;;;;;;;6.68;6.05;;;21.50;74.70;;;;;;5095857;28;20047;-74
2021/07/14 08:28:58;;;;;;;6.38;5.78;;;21.50;74.70;;;;;;5095784;28;20044;-74
2021/07/14 08:31:24;;;;;;;6.18;5.68;;;21.50;74.70;;;;;;5095701;28;20072;-73
2021/07/14 08:33:51;;;;;;;5.93;5.32;;;21.50;74.70;;;;;;5095859;28;20040;-74
2021/07/14 08:36:16;;;;;;;6.00;5.50;;;21.50;74.70;;;;;;5095696;28;20371;-74
2021/07/14 08:38:42;;;;;;;6.15;5.55;;;21.50;75.30;;;;;;5095788;28;20074;-74
2021/07/14 08:41:14;;;;;;;5.95;5.45;;;21.50;74.70;;;;;;5096176;28;20124;-74
2021/07/14 08:43:44;;;;;;;5.88;5.35;;;21.50;74.70;;;;;;5095558;28;20044;-74
2021/07/14 08:46:11;;;;;;;6.53;5.88;;;21.50;74.70;;;;;;5095661;28;20043;-73
2021/07/14 08:48:37;;;;;;;6.55;5.57;;;21.50;74.80;;;;;;5077616;28;20044;-73
2021/07/14 08:51:03;;;;;;;6.28;5.68;;;21.50;74.80;;;;;;5095557;28;20059;-73
2021/07/14 08:53:30;;;;;;;7.10;6.40;;;21.50;74.80;;;;;;5094928;28;20059;-74
2021/07/14 08:55:58;;;;;;;6.13;5.53;;;21.60;74.90;;;;;;5095522;28;20051;-74
2021/07/14 08:58:26;;;;;;;6.10;5.50;;;21.50;74.80;;;;;;5095522;28;20059;-74
2021/07/14 09:00:56;;;;;;;6.45;5.85;;;21.50;74.90;;;;;;5095495;28;20039;-74
2021/07/14 09:03:22;;;;;;;5.80;5.30;;;21.50;74.90;;;;;;5094956;28;20028;-74
2021/07/14 09:05:48;;;;;;;6.05;5.45;;;21.50;74.90;;;;;;5095376;28;20443;-74
2021/07/14 09:08:15;;;;;;;6.43;5.82;;;21.50;75.00;;;;;;5095246;28;20400;-74
2021/07/14 09:10:41;;;;;;;6.38;5.78;;;21.50;75.00;;;;;;5095167;28;20040;-74
2021/07/14 09:13:10;;;;;;;6.03;5.53;;;21.60;75.00;;;;;;5095075;28;20382;-73
2021/07/14 09:15:44;;;;;;;6.78;6.07;;;21.50;75.00;;;;;;5097359;28;20412;-74
2021/07/14 09:18:15;;;;;;;6.85;6.25;;;21.60;75.00;;;;;;5099592;28;20060;-74
2021/07/14 09:20:42;;;;;;;6.07;5.47;;;21.60;75.00;;;;;;5099395;28;20051;-74
2021/07/14 09:23:18;;;;;;;6.88;5.88;;;21.50;75.00;;;;;;5099299;28;20043;-74
2021/07/14 09:25:47;;;;;;;6.63;6.00;;;21.60;75.00;;;;;;5099026;28;20155;-74
2021/07/14 09:28:15;;;;;;;6.32;5.72;;;21.50;74.90;;;;;;5098911;28;20455;-74
2021/07/14 09:30:42;;;;;;;6.35;5.75;;;21.60;75.00;;;;;;5081126;28;20036;-74
2021/07/14 09:33:11;;;;;;;6.50;5.95;;;21.60;75.00;;;;;;5098771;28;20373;-74
2021/07/14 09:35:45;;;;;;;6.75;6.05;;;21.60;75.00;;;;;;5099106;28;20039;-74
2021/07/14 09:38:13;;;;;;;6.53;5.85;;;21.50;75.00;;;;;;5099575;28;20044;-74
2021/07/14 09:40:40;;;;;;;6.22;5.20;;;21.60;75.10;;;;;;5098358;28;20106;-74
2021/07/14 09:43:15;;;;;;;6.47;5.80;;;21.60;75.10;;;;;;5080838;28;20040;-74
2021/07/14 09:45:53;;;;;;;6.65;5.93;;;21.60;75.10;;;;;;5099012;28;20105;-74
2021/07/14 09:48:37;;;;;;;6.68;6.13;;;21.50;75.00;;;;;;5098777;28;20423;-73
2021/07/14 09:51:09;;;;;;;6.63;5.88;;;21.60;75.10;;;;;;5098656;28;20101;-73
2021/07/14 09:53:38;;;;;;;6.70;6.03;;;21.50;75.00;;;;;;5098431;28;20373;-73
2021/07/14 09:56:22;;;;;;;6.78;5.80;;;21.50;75.00;;;;;;5098624;28;20036;-73
2021/07/14 09:59:02;;;;;;;6.43;5.82;;;21.60;75.10;;;;;;5098675;28;20101;-74
2021/07/14 10:01:36;;;;;;;6.32;5.72;;;21.50;75.00;;;;;;5098262;28;20433;-74
2021/07/14 10:04:03;;;;;;;7.35;6.03;;;21.60;75.10;;;;;;5098168;28;20040;-74
2021/07/14 10:06:29;;;;;;;5.55;5.05;;;21.60;75.10;;;;;;5098176;28;20039;-74
2021/07/14 10:09:02;;;;;;;7.10;6.47;;;21.60;75.10;;;;;;5098434;28;20111;-73
2021/07/14 10:11:28;;;;;;;6.28;5.68;;;21.60;75.10;;;;;;5098739;28;20410;-74
2021/07/14 10:14:06;;;;;;;6.45;5.85;;;21.60;75.10;;;;;;5098386;28;20381;-74
2021/07/14 10:16:34;;;;;;;6.68;6.07;;;21.60;75.10;;;;;;5097986;28;20427;-74
2021/07/14 10:19:12;;;;;;;6.18;5.50;;;21.60;75.10;;;;;;5098176;28;20461;-74
2021/07/14 10:21:43;;;;;;;6.85;5.85;;;21.60;75.10;;;;;;5098138;28;20039;-74
2021/07/14 10:24:12;;;;;;;6.63;6.00;;;21.60;75.10;;;;;;5098224;28;20097;-73
2021/07/14 10:26:41;;;;;;;6.00;5.40;;;21.60;75.10;;;;;;5097108;28;20055;-74
2021/07/14 10:29:07;;;;;;;6.20;5.60;;;21.60;75.10;;;;;;5098115;28;20044;-74
2021/07/14 10:31:35;;;;;;;6.25;5.65;;;21.60;75.10;;;;;;5097776;28;20350;-74
2021/07/14 10:34:04;;;;;;;6.30;5.70;;;21.60;75.10;;;;;;5098425;28;20075;-73
2021/07/14 10:36:32;;;;;;;6.15;5.57;;;21.60;75.10;;;;;;5097949;28;20071;-73
2021/07/14 10:39:11;;;;;;;7.13;6.43;;;21.60;75.10;;;;;;5098396;28;20051;-74
2021/07/14 10:41:38;;;;;;;6.78;5.90;;;21.60;75.10;;;;;;5097357;28;20040;-74
2021/07/14 10:44:05;;;;;;;6.95;6.35;;;21.60;75.10;;;;;;5098011;28;20044;-74
2021/07/14 10:46:32;;;;;;;6.07;5.45;;;21.60;75.10;;;;;;5097888;28;20466;-74
2021/07/14 10:49:01;;;;;;;6.53;5.80;;;21.60;75.10;;;;;;5097684;28;20122;-74
2021/07/14 10:51:29;;;;;;;6.97;6.35;;;21.60;75.70;;;;;;5097913;28;20350;-74
2021/07/14 10:53:58;;;;;;;6.60;6.00;;;21.60;75.10;;;;;;5097226;28;20063;-74
2021/07/14 10:56:34;;;;;;;5.97;5.47;;;21.60;75.00;;;;;;5097644;28;20043;-74
2021/07/14 10:59:01;;;;;;;6.20;5.60;;;21.60;75.00;;;;;;5097333;28;20397;-74
2021/07/14 11:01:47;;;;;;;6.60;6.00;;;21.60;75.00;;;;;;5098061;28;20048;-74
2021/07/14 11:04:19;;;;;;;6.45;5.85;;;21.60;74.90;;;;;;5097005;28;20043;-73
2021/07/14 11:07:06;;;;;;;6.53;6.03;;;21.60;75.00;;;;;;5097560;28;20047;-74
2021/07/14 11:10:19;;;;;;;6.05;5.50;;;21.60;74.90;;;;;;5097851;28;20119;-73
2021/07/14 11:12:45;;;;;;;6.63;6.00;;;21.60;74.90;;;;;;5087997;28;20147;-74
2021/07/14 11:15:12;;;;;;;7.80;6.88;;;21.60;75.10;;;;;;5096811;28;20495;-74
2021/07/14 11:17:38;;;;;;;6.70;6.05;;;21.60;75.10;;;;;;5096431;28;20028;-74
2021/07/14 11:20:13;;;;;;;6.53;5.90;;;21.60;75.10;;;;;;5096949;28;20042;-74
2021/07/14 11:22:41;;;;;;;6.35;5.75;;;21.60;75.10;;;;;;5097015;28;20043;-74
2021/07/14 11:25:09;;;;;;;6.88;6.18;;;21.60;75.10;;;;;;5096703;28;20055;-73
2021/07/14 11:27:35;;;;;;;7.13;6.53;;;21.70;75.20;;;;;;5096907;28;20051;-74
2021/07/14 11:30:03;;;;;;;7.03;6.32;;;21.70;75.20;;;;;;5096704;28;20048;-74
2021/07/14 11:32:39;;;;;;;7.63;6.07;;;21.60;75.10;;;;;;5096667;28;20127;-73
2021/07/14 11:35:04;;;;;;;6.57;6.00;;;21.70;75.20;;;;;;5096705;28;20117;-73
2021/07/14 11:37:35;;;;;;;7.20;6.43;;;21.60;75.10;;;;;;5095538;28;20036;-73
2021/07/14 11:40:19;;;;;;;6.75;6.07;;;21.60;75.10;;;;;;5097124;28;20105;-73
2021/07/14 11:42:48;;;;;;;6.43;5.72;;;21.70;75.00;;;;;;5096418;28;20075;-73
2021/07/14 11:45:15;;;;;;;7.28;6.50;;;21.70;75.00;;;;;;5096475;28;20089;-73
2021/07/14 11:47:41;;;;;;;6.63;5.97;;;21.70;75.00;;;;;;5096385;28;20104;-73
2021/07/14 11:50:10;;;;;;;7.70;6.82;;;21.70;75.00;;;;;;5096149;28;20050;-73
2021/07/14 11:52:47;;;;;;;7.55;6.85;;;21.70;74.90;;;;;;5096019;28;20040;-74
2021/07/14 11:55:24;;;;;;;7.13;6.47;;;21.70;74.90;;;;;;5096410;28;20450;-74
2021/07/14 11:57:56;;;;;;;7.47;6.72;;;21.70;74.80;;;;;;5096138;28;20067;-74
2021/07/14 12:00:34;;;;;;;7.78;6.97;;;21.70;74.90;;;;;;5096387;28;20488;-73
2021/07/14 12:03:01;;;;;;;7.05;6.35;;;21.70;74.80;;;;;;5095941;28;20032;-74
2021/07/14 12:05:31;;;;;;;7.15;6.07;;;21.70;74.80;;;;;;5095542;28;20062;-73
2021/07/14 12:08:10;;;;;;;8.20;7.40;;;21.70;74.80;;;;;;5096017;28;20040;-73
2021/07/14 12:10:37;;;;;;;7.93;7.07;;;21.70;74.80;;;;;;5096157;28;20073;-73
2021/07/14 12:13:06;;;;;;;7.43;6.72;;;21.70;74.80;;;;;;5095395;28;20115;-73
2021/07/14 12:15:47;;;;;;;8.57;6.95;;;21.70;74.80;;;;;;5095894;28;20039;-74
2021/07/14 12:18:13;;;;;;;8.45;7.68;;;21.80;74.80;;;;;;5096479;28;20078;-73
2021/07/14 12:20:53;;;;;;;7.45;6.75;;;21.80;74.80;;;;;;5096035;28;20047;-74
2021/07/14 12:23:19;;;;;;;7.75;6.90;;;21.80;74.80;;;;;;5096063;28;20040;-73
2021/07/14 12:25:46;;;;;;;8.20;7.18;;;21.80;74.80;;;;;;5095521;28;20119;-74
2021/07/14 12:28:13;;;;;;;7.88;7.07;;;21.80;74.80;;;;;;5095604;28;20378;-73
2021/07/14 12:30:40;;;;;;;7.65;6.90;;;21.80;74.90;;;;;;5095476;28;20131;-73
2021/07/14 12:33:08;;;;;;;8.13;6.82;;;21.80;74.80;;;;;;5095566;28;20047;-73
2021/07/14 12:35:40;;;;;;;8.20;7.03;;;21.80;74.80;;;;;;5095499;28;20040;-73
2021/07/14 12:38:09;;;;;;;7.57;6.85;;;21.80;74.80;;;;;;5095871;28;20454;-73
2021/07/14 12:40:40;;;;;;;7.95;7.07;;;21.80;74.80;;;;;;5095932;28;20040;-73
2021/07/14 12:43:13;;;;;;;8.05;7.07;;;21.80;74.80;;;;;;5095497;28;20044;-74
2021/07/14 12:45:40;;;;;;;;;;;21.80;74.80;;;;;;5095948;28;20529;-74
2021/07/14 12:48:11;;;;;;;7.90;6.45;;;21.80;74.70;;;;;;5095420;28;19919;-74
2021/07/14 12:50:44;;;;;;;7.57;6.55;;;21.80;74.90;;;;;;5094804;28;20032;-74
2021/07/14 12:53:10;;;;;;;7.50;6.73;;;21.80;74.80;;;;;;5095010;28;20111;-74
2021/07/14 12:55:38;;;;;;;8.18;7.38;;;21.80;74.80;;;;;;5095227;28;20306;-73
2021/07/14 12:58:16;;;;;;;7.80;6.72;;;21.80;74.80;;;;;;5095470;28;20067;-74
2021/07/14 13:00:44;;;;;;;7.75;6.95;;;21.80;74.80;;;;;;5096105;28;20407;-73
2021/07/14 13:03:21;;;;;;;7.82;6.88;;;21.90;74.90;;;;;;5094877;28;20051;-73
2021/07/14 13:05:48;;;;;;;8.05;7.30;;;21.90;74.90;;;;;;5095243;28;20107;-73